Time;durP1;ratioP1;P1;durP2;ratioP2;P2;SDS_P1;SDS_P2;PMS_P1;PMS_P2;Temp;Humidity;BMP_temperature;BMP_pressure;BME280_temperature;BME280_humidity;BME280_pressure;Samples;Min_cycle;Max_cycle;Signal;HPM_P1;HPM_P2
2022/03/27 00:00:35;;;;;;;22.05;14.63;;;10.80;99.90;;;;;;5031585;28;20226;-45
2022/03/27 00:03:01;;;;;;;36.00;20.02;;;10.70;99.90;;;;;;5031907;28;20173;-45
2022/03/27 00:05:27;;;;;;;48.10;25.95;;;10.70;99.90;;;;;;5047244;28;20171;-45
2022/03/27 00:07:52;;;;;;;27.77;17.45;;;10.70;99.90;;;;;;5032086;28;20203;-45
2022/03/27 00:10:18;;;;;;;28.58;17.27;;;10.70;99.90;;;;;;5032066;28;20179;-45
2022/03/27 00:12:44;;;;;;;23.95;15.48;;;10.60;99.90;;;;;;5047039;28;20171;-45
2022/03/27 00:15:10;;;;;;;23.23;16.77;;;10.50;99.90;;;;;;5031530;28;20530;-45
2022/03/27 00:17:36;;;;;;;23.08;15.02;;;10.50;99.90;;;;;;5031698;28;20164;-45
2022/03/27 00:20:08;;;;;;;28.67;15.65;;;10.50;99.90;;;;;;5031803;28;20226;-45
2022/03/27 00:22:34;;;;;;;22.15;15.13;;;10.50;99.90;;;;;;5031983;28;20175;-45
2022/03/27 00:25:00;;;;;;;23.63;15.07;;;10.40;99.90;;;;;;5031653;28;20533;-44
2022/03/27 00:27:26;;;;;;;22.48;14.90;;;10.40;99.90;;;;;;5031577;28;20689;-45
2022/03/27 00:29:52;;;;;;;20.05;13.55;;;10.40;99.90;;;;;;5031801;28;20179;-45
2022/03/27 00:32:17;;;;;;;20.33;14.15;;;10.50;99.90;;;;;;5031817;28;20175;-45
2022/03/27 00:34:43;;;;;;;22.05;12.77;;;10.40;99.90;;;;;;5031822;28;20675;-45
2022/03/27 00:37:08;;;;;;;20.52;13.68;;;10.50;99.90;;;;;;5031807;28;20510;-45
2022/03/27 00:39:34;;;;;;;21.45;12.88;;;10.40;99.90;;;;;;5031524;28;20642;-45
2022/03/27 00:42:00;;;;;;;18.73;12.85;;;10.40;99.90;;;;;;5031608;28;20575;-45
2022/03/27 00:44:25;;;;;;;48.17;30.73;;;10.40;99.90;;;;;;5031334;28;20171;-44
2022/03/27 00:46:51;;;;;;;102.20;67.43;;;10.30;99.90;;;;;;5031685;28;20223;-45
2022/03/27 00:49:16;;;;;;;51.65;36.80;;;10.40;99.90;;;;;;5033909;28;20576;-45
2022/03/27 00:51:42;;;;;;;63.70;45.30;;;10.40;99.90;;;;;;5035265;28;20198;-45
2022/03/27 00:54:08;;;;;;;39.83;29.25;;;10.40;99.90;;;;;;5035194;28;20686;-45
2022/03/27 00:56:33;;;;;;;29.00;20.55;;;10.30;99.90;;;;;;5035580;28;20402;-45
2022/03/27 00:58:59;;;;;;;22.70;15.13;;;10.30;99.90;;;;;;5034836;28;20510;-45
2022/03/27 01:01:36;;;;;;;21.73;14.25;;;10.30;99.90;;;;;;5035460;28;20164;-44
2022/03/27 01:04:06;;;;;;;21.35;13.02;;;10.10;99.90;;;;;;5035246;28;20171;-44
2022/03/27 01:06:34;;;;;;;20.67;13.63;;;10.00;99.90;;;;;;5035317;28;20172;-44
2022/03/27 01:11:46;;;;;;;21.20;13.80;;;10.00;99.90;;;;;;5035385;28;20221;-44
2022/03/27 01:14:12;;;;;;;17.73;12.45;;;10.00;99.90;;;;;;5035125;28;20290;-45
2022/03/27 01:16:46;;;;;;;26.88;14.27;;;10.00;99.90;;;;;;5035343;28;20164;-44
2022/03/27 01:19:14;;;;;;;18.63;13.07;;;10.00;99.90;;;;;;5035314;28;20175;-44
2022/03/27 01:21:45;;;;;;;20.73;13.30;;;10.00;99.90;;;;;;5035036;28;20164;-44
2022/03/27 01:24:13;;;;;;;17.70;12.15;;;10.00;99.90;;;;;;5035235;28;20178;-44
2022/03/27 01:26:39;;;;;;;19.90;11.43;;;10.00;99.90;;;;;;5035012;28;20254;-44
2022/03/27 01:29:06;;;;;;;19.25;13.18;;;10.00;99.90;;;;;;5034908;28;20592;-44
2022/03/27 01:31:33;;;;;;;17.98;13.55;;;10.00;99.90;;;;;;5035102;28;20182;-44
2022/03/27 01:33:58;;;;;;;23.10;13.25;;;10.00;99.90;;;;;;5034985;28;20214;-45
2022/03/27 01:36:27;;;;;;;16.63;12.10;;;9.90;99.90;;;;;;5035033;28;20164;-44
2022/03/27 01:38:55;;;;;;;17.52;12.40;;;10.00;99.90;;;;;;5035292;28;20195;-44
2022/03/27 01:41:21;;;;;;;15.93;11.65;;;9.90;99.90;;;;;;5035013;28;20221;-44
2022/03/27 01:43:46;;;;;;;13.98;10.73;;;9.90;99.90;;;;;;5034896;28;20176;-45
2022/03/27 01:46:12;;;;;;;19.98;10.60;;;10.00;99.90;;;;;;5034528;28;20645;-44
2022/03/27 01:48:38;;;;;;;16.40;10.45;;;9.90;99.90;;;;;;5034536;28;20627;-44
2022/03/27 01:51:03;;;;;;;16.60;11.23;;;10.00;99.90;;;;;;5034450;28;20159;-44
2022/03/27 01:53:29;;;;;;;16.95;11.10;;;9.90;99.90;;;;;;5034374;28;20202;-44
2022/03/27 01:55:55;;;;;;;15.85;9.98;;;9.90;99.90;;;;;;5034374;28;20168;-45
2022/03/27 01:58:22;;;;;;;15.63;11.13;;;9.90;99.90;;;;;;5034601;28;20631;-45
2022/03/27 02:00:47;;;;;;;17.65;11.40;;;9.90;99.90;;;;;;5033913;28;20643;-45
2022/03/27 02:03:13;;;;;;;18.10;10.20;;;9.90;99.90;;;;;;5034278;28;20179;-45
2022/03/27 02:05:38;;;;;;;17.77;10.73;;;9.90;99.90;;;;;;5034297;28;20574;-44
2022/03/27 02:08:04;;;;;;;17.80;9.73;;;9.90;99.90;;;;;;5034275;28;20172;-45
2022/03/27 02:10:30;;;;;;;13.90;9.48;;;10.00;99.90;;;;;;5034165;28;20658;-45
2022/03/27 02:12:55;;;;;;;15.07;9.93;;;9.90;99.90;;;;;;5034038;28;20195;-44
2022/03/27 02:15:21;;;;;;;16.65;9.82;;;9.90;99.90;;;;;;5034398;28;20172;-44
2022/03/27 02:17:47;;;;;;;15.77;10.07;;;9.80;99.90;;;;;;5033973;28;20213;-44
2022/03/27 02:20:13;;;;;;;15.70;10.48;;;9.70;99.90;;;;;;5033989;28;20163;-45
2022/03/27 02:22:38;;;;;;;14.18;9.90;;;9.70;99.90;;;;;;5033850;28;20167;-44
2022/03/27 02:25:04;;;;;;;16.95;9.60;;;9.70;99.90;;;;;;5033859;28;20182;-44
2022/03/27 02:27:30;;;;;;;15.00;9.85;;;9.70;99.90;;;;;;5033961;28;20171;-44
2022/03/27 02:29:56;;;;;;;16.38;10.13;;;9.70;99.90;;;;;;5033775;28;20179;-44
2022/03/27 02:32:21;;;;;;;16.27;9.52;;;9.60;99.90;;;;;;5034044;28;20209;-44
2022/03/27 02:34:47;;;;;;;14.13;8.80;;;9.70;99.90;;;;;;5033582;28;20210;-44
2022/03/27 02:37:13;;;;;;;13.88;8.90;;;9.70;99.90;;;;;;5033642;28;20168;-45
2022/03/27 02:39:39;;;;;;;17.73;9.68;;;9.60;99.90;;;;;;5033571;28;20171;-45
2022/03/27 02:42:05;;;;;;;16.02;9.73;;;9.60;99.90;;;;;;5033465;28;20160;-45
2022/03/27 02:44:31;;;;;;;14.35;9.52;;;9.60;99.90;;;;;;5033798;28;20194;-45
2022/03/27 02:46:57;;;;;;;15.65;8.95;;;9.60;99.90;;;;;;5033282;28;20698;-44
2022/03/27 02:49:22;;;;;;;12.10;8.73;;;9.60;99.90;;;;;;5033403;28;20586;-45
2022/03/27 02:51:48;;;;;;;14.43;9.45;;;9.50;99.90;;;;;;5033708;28;20175;-45
2022/03/27 02:54:13;;;;;;;16.10;8.93;;;9.50;99.90;;;;;;5033202;28;20207;-45
2022/03/27 02:56:39;;;;;;;14.23;9.35;;;9.50;99.90;;;;;;5033142;28;20164;-45
2022/03/27 02:59:05;;;;;;;11.88;8.45;;;9.50;99.90;;;;;;5033226;28;20171;-45
2022/03/27 03:01:32;;;;;;;14.02;8.40;;;9.40;99.90;;;;;;5033143;28;20160;-44
2022/03/27 03:03:58;;;;;;;10.98;8.68;;;9.30;99.90;;;;;;5033118;28;20170;-44
2022/03/27 03:06:24;;;;;;;13.93;7.97;;;9.30;99.90;;;;;;5031863;28;20167;-45
2022/03/27 03:08:50;;;;;;;12.82;8.65;;;9.30;99.90;;;;;;5033299;28;20186;-45
2022/03/27 03:11:16;;;;;;;13.90;9.10;;;9.30;99.90;;;;;;5031866;28;20530;-44
2022/03/27 03:13:44;;;;;;;18.08;9.43;;;9.30;99.90;;;;;;5032825;28;20199;-45
2022/03/27 03:16:12;;;;;;;13.85;8.98;;;9.30;99.90;;;;;;5032893;28;20163;-44
2022/03/27 03:18:37;;;;;;;15.85;8.82;;;9.30;99.90;;;;;;5032896;28;20635;-44
2022/03/27 03:21:03;;;;;;;18.00;9.23;;;9.20;99.90;;;;;;5032792;28;20297;-44
2022/03/27 03:23:29;;;;;;;15.02;8.70;;;9.20;99.90;;;;;;5032797;28;20246;-44
2022/03/27 03:25:55;;;;;;;14.95;8.45;;;9.20;99.90;;;;;;5032757;28;20238;-44
2022/03/27 03:28:20;;;;;;;16.48;9.13;;;9.20;99.90;;;;;;5033178;28;20282;-45
2022/03/27 03:30:46;;;;;;;14.95;8.30;;;9.10;99.90;;;;;;5032649;28;20221;-44
2022/03/27 03:33:12;;;;;;;12.30;8.55;;;9.10;99.90;;;;;;5032549;28;20191;-45
2022/03/27 03:35:39;;;;;;;14.23;8.93;;;9.10;99.90;;;;;;5032553;28;20178;-45
2022/03/27 03:38:05;;;;;;;13.20;9.05;;;9.10;99.90;;;;;;5032737;28;20178;-45
2022/03/27 03:40:31;;;;;;;10.73;7.72;;;9.10;99.90;;;;;;5032539;28;20174;-45
2022/03/27 03:42:56;;;;;;;13.25;8.30;;;9.10;99.90;;;;;;5032459;28;20171;-45
2022/03/27 03:45:22;;;;;;;10.90;8.25;;;9.10;99.90;;;;;;5032961;28;20259;-45
2022/03/27 03:47:48;;;;;;;12.68;8.93;;;7.90;99.90;;;;;;5032470;28;20584;-45
2022/03/27 03:50:13;;;;;;;11.52;8.85;;;8.90;99.90;;;;;;5032446;28;20182;-45
2022/03/27 03:52:39;;;;;;;16.10;9.30;;;9.00;99.90;;;;;;5032595;28;20171;-45
2022/03/27 03:55:05;;;;;;;17.50;9.57;;;9.00;99.90;;;;;;5032237;28;20662;-45
2022/03/27 03:57:31;;;;;;;13.65;8.80;;;9.00;99.90;;;;;;5032622;28;20175;-45
2022/03/27 03:59:56;;;;;;;13.05;8.82;;;9.00;99.90;;;;;;5032142;28;20167;-44
2022/03/27 04:02:22;;;;;;;14.82;8.93;;;9.00;99.90;;;;;;5032450;28;20171;-45
2022/03/27 04:04:47;;;;;;;17.23;9.93;;;9.00;99.90;;;;;;5032088;28;20159;-45
2022/03/27 04:07:13;;;;;;;12.85;8.95;;;8.90;99.90;;;;;;5032122;28;20247;-44
2022/03/27 04:09:38;;;;;;;18.52;9.32;;;8.90;99.90;;;;;;5032365;28;20205;-45
2022/03/27 04:12:05;;;;;;;16.55;10.25;;;8.90;99.90;;;;;;5032007;28;20635;-44
2022/03/27 04:14:34;;;;;;;14.73;9.52;;;8.90;99.90;;;;;;5032127;28;20214;-44
2022/03/27 04:17:00;;;;;;;15.18;10.32;;;9.00;99.90;;;;;;5032285;28;20647;-44
2022/03/27 04:19:26;;;;;;;15.48;8.82;;;8.90;99.90;;;;;;5032146;28;20174;-44
2022/03/27 04:21:51;;;;;;;17.17;10.02;;;9.00;99.90;;;;;;5032296;28;20537;-45
2022/03/27 04:24:17;;;;;;;13.57;8.90;;;8.90;99.90;;;;;;5049922;28;20171;-45
2022/03/27 04:26:42;;;;;;;16.85;9.73;;;8.90;99.90;;;;;;5036011;28;20520;-45
2022/03/27 04:29:10;;;;;;;16.10;9.98;;;8.80;99.90;;;;;;5036234;28;20175;-45
2022/03/27 04:31:36;;;;;;;18.08;9.95;;;8.80;99.90;;;;;;5036138;28;20261;-45
2022/03/27 04:34:02;;;;;;;15.45;9.70;;;8.80;99.90;;;;;;5035863;28;20301;-45
2022/03/27 04:36:27;;;;;;;13.88;10.20;;;8.80;99.90;;;;;;5035895;28;20714;-44
2022/03/27 04:38:53;;;;;;;15.40;10.23;;;8.80;99.90;;;;;;5035853;28;20541;-45
2022/03/27 04:41:18;;;;;;;14.35;9.68;;;8.80;99.90;;;;;;5036225;28;20258;-45
2022/03/27 04:43:47;;;;;;;15.15;10.65;;;8.80;99.90;;;;;;5035610;28;20175;-45
2022/03/27 04:46:13;;;;;;;19.38;10.50;;;8.70;99.90;;;;;;5035780;28;20284;-45
2022/03/27 04:48:38;;;;;;;16.23;11.30;;;8.70;99.90;;;;;;5050967;28;20210;-45
2022/03/27 04:51:04;;;;;;;16.75;11.00;;;8.70;99.90;;;;;;5035559;28;20191;-45
2022/03/27 04:53:29;;;;;;;18.10;11.15;;;8.70;99.90;;;;;;5035774;28;20294;-45
2022/03/27 04:55:55;;;;;;;17.92;10.95;;;8.70;99.90;;;;;;5035271;28;20167;-45
2022/03/27 04:58:21;;;;;;;17.80;11.57;;;8.50;99.90;;;;;;5035747;28;20175;-45
2022/03/27 05:00:46;;;;;;;20.13;11.45;;;8.50;99.90;;;;;;5035437;28;20174;-45
2022/03/27 05:03:12;;;;;;;18.42;11.88;;;8.50;99.90;;;;;;5035624;28;20167;-45
2022/03/27 05:05:41;;;;;;;16.70;12.52;;;8.50;99.90;;;;;;5035631;28;20171;-45
2022/03/27 05:08:07;;;;;;;17.77;11.98;;;8.50;99.90;;;;;;5035341;28;20160;-45
2022/03/27 05:10:33;;;;;;;22.30;12.57;;;8.50;99.90;;;;;;5035485;28;20179;-45
2022/03/27 05:12:59;;;;;;;17.00;13.07;;;8.50;99.90;;;;;;5035159;28;20195;-45
2022/03/27 05:15:24;;;;;;;19.83;13.48;;;8.50;99.90;;;;;;5035245;28;20257;-45
2022/03/27 05:17:56;;;;;;;20.60;13.77;;;8.50;99.90;;;;;;5035664;28;20217;-45
2022/03/27 05:20:22;;;;;;;21.75;13.63;;;8.50;99.90;;;;;;5035621;28;20589;-45
2022/03/27 05:22:48;;;;;;;22.48;14.13;;;8.40;99.90;;;;;;5035541;28;20164;-45
2022/03/27 05:25:15;;;;;;;19.15;13.75;;;8.50;99.90;;;;;;5035101;28;20635;-45
2022/03/27 05:27:54;;;;;;;20.80;14.00;;;8.50;99.90;;;;;;5034935;28;20706;-45
2022/03/27 05:30:25;;;;;;;22.65;15.00;;;8.50;99.90;;;;;;5050550;28;20525;-45
2022/03/27 05:32:53;;;;;;;19.85;14.23;;;8.50;99.90;;;;;;5035048;28;20654;-45
2022/03/27 05:35:19;;;;;;;23.50;15.18;;;8.50;99.90;;;;;;5033785;28;20214;-45
2022/03/27 05:37:46;;;;;;;24.27;15.35;;;8.60;99.90;;;;;;5035035;28;20174;-45
2022/03/27 05:40:14;;;;;;;25.75;16.13;;;8.60;99.90;;;;;;5034639;28;20635;-45
2022/03/27 05:42:40;;;;;;;21.95;15.43;;;8.60;99.90;;;;;;5034931;28;20236;-45
2022/03/27 05:45:07;;;;;;;24.45;15.05;;;8.60;99.90;;;;;;5034580;28;20243;-44
2022/03/27 05:47:34;;;;;;;22.73;15.27;;;8.60;99.90;;;;;;5034393;28;20223;-45
2022/03/27 05:50:00;;;;;;;20.95;14.18;;;8.50;99.90;;;;;;5034558;28;20175;-45
2022/03/27 05:52:26;;;;;;;22.08;15.20;;;8.50;99.90;;;;;;5034422;28;20189;-45
2022/03/27 05:54:52;;;;;;;21.85;14.77;;;8.50;99.90;;;;;;5034774;28;20674;-45
2022/03/27 05:57:19;;;;;;;22.17;14.48;;;8.50;99.90;;;;;;5034847;28;20176;-45
2022/03/27 05:59:45;;;;;;;24.23;15.15;;;8.60;99.90;;;;;;5049750;28;20536;-45
2022/03/27 06:02:12;;;;;;;22.38;15.55;;;8.50;99.90;;;;;;5034346;28;20160;-45
2022/03/27 06:04:38;;;;;;;24.63;15.70;;;8.50;99.90;;;;;;5034418;28;20171;-45
2022/03/27 06:07:04;;;;;;;27.65;17.00;;;8.50;99.90;;;;;;5034180;28;20206;-45
2022/03/27 06:09:30;;;;;;;25.85;16.25;;;8.60;99.90;;;;;;5034276;28;20590;-45
2022/03/27 06:11:55;;;;;;;27.08;17.17;;;8.50;99.90;;;;;;5034389;28;20258;-45
2022/03/27 06:14:21;;;;;;;25.73;17.67;;;8.60;99.90;;;;;;5034357;28;20211;-45
2022/03/27 06:16:46;;;;;;;26.55;17.80;;;8.60;99.90;;;;;;5034061;28;20627;-45
2022/03/27 06:19:12;;;;;;;24.15;15.38;;;8.60;99.90;;;;;;5034149;28;20546;-45
2022/03/27 06:21:38;;;;;;;27.27;17.77;;;8.60;99.90;;;;;;5034222;28;20687;-45
2022/03/27 06:24:04;;;;;;;26.92;17.00;;;8.60;99.90;;;;;;5033988;28;20694;-45
2022/03/27 06:26:29;;;;;;;23.92;16.35;;;8.60;99.90;;;;;;5049286;28;20197;-45
2022/03/27 06:28:55;;;;;;;30.00;18.27;;;8.70;99.90;;;;;;5033769;28;20206;-45
2022/03/27 06:31:21;;;;;;;32.33;18.70;;;8.80;99.90;;;;;;5034127;28;20623;-45
2022/03/27 06:33:46;;;;;;;34.53;20.17;;;8.80;99.90;;;;;;5033533;28;20203;-45
2022/03/27 06:36:12;;;;;;;34.47;20.67;;;8.90;99.90;;;;;;5032386;28;20163;-45
2022/03/27 06:38:38;;;;;;;46.90;22.33;;;9.00;99.90;;;;;;5033548;28;20172;-45
2022/03/27 06:41:04;;;;;;;45.47;25.13;;;9.00;99.90;;;;;;5032345;28;20182;-45
2022/03/27 06:43:30;;;;;;;49.00;26.02;;;9.10;99.90;;;;;;5033729;28;20176;-45
2022/03/27 06:45:56;;;;;;;50.00;26.60;;;9.20;99.90;;;;;;5032805;28;20186;-45
2022/03/27 06:48:21;;;;;;;51.80;28.67;;;9.30;99.90;;;;;;5033572;28;20179;-45
2022/03/27 06:50:47;;;;;;;60.10;29.52;;;9.30;99.90;;;;;;5032960;28;20526;-45
2022/03/27 06:53:18;;;;;;;74.00;32.20;;;9.40;99.90;;;;;;5033129;28;20207;-45
2022/03/27 06:55:44;;;;;;;60.60;32.13;;;9.50;99.90;;;;;;5033246;28;20182;-45
2022/03/27 06:58:09;;;;;;;77.97;35.08;;;9.60;99.90;;;;;;5033256;28;20167;-45
2022/03/27 07:03:20;;;;;;;87.97;39.65;;;9.70;99.90;;;;;;5033465;28;20653;-45
2022/03/27 07:05:46;;;;;;;77.57;36.55;;;9.70;99.90;;;;;;5033330;28;20175;-46
2022/03/27 07:08:14;;;;;;;85.10;39.15;;;9.70;99.90;;;;;;5032993;28;20167;-45
2022/03/27 07:10:41;;;;;;;94.03;42.00;;;9.80;99.90;;;;;;5032956;28;20164;-46
2022/03/27 07:13:09;;;;;;;97.28;44.90;;;9.90;99.90;;;;;;5032983;28;20210;-45
2022/03/27 07:15:36;;;;;;;84.05;42.40;;;9.90;99.90;;;;;;5032664;28;20159;-45
2022/03/27 07:18:03;;;;;;;80.20;40.10;;;10.00;99.90;;;;;;5032923;28;20537;-45
2022/03/27 07:20:33;;;;;;;75.13;36.90;;;10.10;99.90;;;;;;5032481;28;20163;-45
2022/03/27 07:23:02;;;;;;;79.80;40.20;;;10.10;99.90;;;;;;5032400;28;20167;-45
2022/03/27 07:25:29;;;;;;;93.65;42.80;;;10.30;99.90;;;;;;5033016;28;20167;-45
2022/03/27 07:27:55;;;;;;;92.20;45.03;;;10.30;99.90;;;;;;5032734;28;20700;-44
2022/03/27 07:30:21;;;;;;;91.60;43.28;;;10.40;99.90;;;;;;5033198;28;20224;-44
2022/03/27 07:32:47;;;;;;;91.47;45.30;;;10.40;99.90;;;;;;5032548;28;20171;-45
2022/03/27 07:35:17;;;;;;;97.28;48.15;;;10.30;99.90;;;;;;5032242;28;20677;-44
2022/03/27 07:37:43;;;;;;;98.22;48.53;;;10.50;99.90;;;;;;5032804;28;20174;-44
2022/03/27 07:40:10;;;;;;;96.00;49.75;;;10.60;99.90;;;;;;5032179;28;20178;-44
2022/03/27 07:42:46;;;;;;;99.78;48.17;;;10.80;99.90;;;;;;5032191;28;20174;-45
2022/03/27 07:45:12;;;;;;;80.55;44.67;;;10.80;99.90;;;;;;5032544;28;20197;-45
2022/03/27 07:47:38;;;;;;;85.22;45.28;;;10.80;99.90;;;;;;5032064;28;20230;-45
2022/03/27 07:50:06;;;;;;;83.18;45.85;;;10.80;99.90;;;;;;5032308;28;20167;-45
2022/03/27 07:52:32;;;;;;;81.28;43.95;;;10.90;99.90;;;;;;5032222;28;20175;-45
2022/03/27 07:54:57;;;;;;;65.93;41.15;;;11.00;99.90;;;;;;5031799;28;20211;-45
2022/03/27 07:57:23;;;;;;;51.92;33.22;;;11.10;99.90;;;;;;5031800;28;20230;-45
2022/03/27 07:59:49;;;;;;;27.70;18.35;;;11.10;99.90;;;;;;5032089;28;20256;-45
2022/03/27 08:02:16;;;;;;;30.27;20.33;;;10.90;99.90;;;;;;5031976;28;20258;-45
2022/03/27 08:04:41;;;;;;;29.95;20.05;;;10.90;99.90;;;;;;5032010;28;20258;-45
2022/03/27 08:07:07;;;;;;;32.90;23.63;;;11.00;99.90;;;;;;5031980;28;20254;-45
2022/03/27 08:09:33;;;;;;;30.17;22.85;;;11.20;99.90;;;;;;5046991;28;20178;-45
2022/03/27 08:11:58;;;;;;;27.70;21.85;;;11.30;99.90;;;;;;5031579;28;20172;-45
2022/03/27 08:14:28;;;;;;;34.88;22.88;;;11.40;99.90;;;;;;5031267;28;20203;-45
2022/03/27 08:16:54;;;;;;;29.63;21.38;;;11.50;99.90;;;;;;5031734;28;20167;-45
2022/03/27 08:19:20;;;;;;;26.13;19.85;;;11.50;99.90;;;;;;5031938;28;20253;-45
2022/03/27 08:21:46;;;;;;;33.70;22.52;;;11.60;99.90;;;;;;5032156;28;20167;-46
2022/03/27 08:24:11;;;;;;;29.85;21.65;;;11.70;99.90;;;;;;5032081;28;20250;-46
2022/03/27 08:29:31;;;;;;;29.42;22.58;;;11.80;99.90;;;;;;5031893;28;20177;-46
2022/03/27 08:32:02;;;;;;;30.23;22.00;;;12.00;99.90;;;;;;5031632;28;20159;-46
2022/03/27 08:34:30;;;;;;;31.88;23.13;;;12.20;99.90;;;;;;5031344;28;20214;-45
2022/03/27 08:36:57;;;;;;;33.65;25.73;;;12.20;99.90;;;;;;5032015;28;20293;-45
2022/03/27 08:39:23;;;;;;;36.10;25.90;;;12.40;99.90;;;;;;5032178;28;20179;-46
2022/03/27 08:41:51;;;;;;;38.47;30.67;;;12.50;99.90;;;;;;5031677;28;20246;-46
2022/03/27 08:44:19;;;;;;;38.80;29.30;;;12.70;99.90;;;;;;5031084;28;20172;-45
2022/03/27 08:46:46;;;;;;;38.92;30.05;;;12.80;99.90;;;;;;5030544;28;20213;-45
2022/03/27 08:49:40;;;;;;;41.85;32.17;;;12.70;99.90;;;;;;5031090;28;20196;-45
2022/03/27 08:52:16;;;;;;;33.63;26.48;;;12.70;99.90;;;;;;5030831;28;20168;-46
2022/03/27 08:54:49;;;;;;;40.15;29.65;;;12.70;99.90;;;;;;5030739;28;20202;-45
2022/03/27 08:57:22;;;;;;;36.13;28.35;;;12.70;99.90;;;;;;5031012;28;20175;-45
2022/03/27 08:59:51;;;;;;;37.65;29.75;;;12.90;99.90;;;;;;5031769;28;20225;-45
2022/03/27 09:02:19;;;;;;;50.30;37.25;;;12.80;99.90;;;;;;5031344;28;20168;-45
2022/03/27 09:04:45;;;;;;;50.20;39.78;;;13.00;99.90;;;;;;5031588;28;20250;-45
2022/03/27 09:07:10;;;;;;;38.40;30.23;;;13.00;99.90;;;;;;5031436;28;20168;-45
2022/03/27 09:09:36;;;;;;;31.65;24.55;;;13.10;99.90;;;;;;5032929;28;20160;-45
2022/03/27 09:12:04;;;;;;;28.02;22.70;;;13.20;99.90;;;;;;5035499;28;20214;-45
2022/03/27 09:14:32;;;;;;;35.63;27.20;;;13.30;99.90;;;;;;5035033;28;20238;-45
2022/03/27 09:17:06;;;;;;;44.40;35.13;;;13.50;99.90;;;;;;5035119;28;20167;-45
2022/03/27 09:19:40;;;;;;;48.88;38.03;;;13.70;99.90;;;;;;5035155;28;20171;-45
2022/03/27 09:22:14;;;;;;;54.35;43.10;;;14.00;99.90;;;;;;5050237;28;20262;-45
2022/03/27 09:24:40;;;;;;;52.95;42.22;;;14.30;99.90;;;;;;5034634;28;20545;-45
2022/03/27 09:27:06;;;;;;;55.58;41.15;;;14.10;99.90;;;;;;5034622;28;20231;-45
2022/03/27 09:29:55;;;;;;;49.50;38.17;;;13.80;99.90;;;;;;5034662;28;20186;-45
2022/03/27 09:32:25;;;;;;;45.30;35.30;;;13.90;99.90;;;;;;5034929;28;20171;-45
2022/03/27 09:34:59;;;;;;;43.67;35.75;;;13.90;99.90;;;;;;5034621;28;20282;-45
2022/03/27 09:37:35;;;;;;;43.40;34.10;;;13.90;99.90;;;;;;5034377;28;20206;-45
2022/03/27 09:40:02;;;;;;;44.30;33.25;;;13.80;99.90;;;;;;5033933;28;20163;-45
2022/03/27 09:42:28;;;;;;;41.30;31.52;;;13.80;99.90;;;;;;5034234;28;20627;-45
2022/03/27 09:45:20;;;;;;;44.80;33.67;;;13.80;99.90;;;;;;5034126;28;20171;-46
2022/03/27 09:47:48;;;;;;;41.15;33.65;;;13.90;99.90;;;;;;5034122;28;20215;-46
2022/03/27 09:50:35;;;;;;;42.85;32.13;;;14.10;99.90;;;;;;5034543;28;20183;-46
2022/03/27 09:53:22;;;;;;;45.50;33.58;;;14.20;99.90;;;;;;5034208;28;20164;-46
2022/03/27 09:55:59;;;;;;;42.13;31.13;;;14.40;99.90;;;;;;5034201;28;20167;-46
2022/03/27 09:58:43;;;;;;;36.60;31.40;;;14.50;99.90;;;;;;5033637;28;20167;-46
2022/03/27 10:01:09;;;;;;;38.63;30.13;;;14.60;99.90;;;;;;5033921;28;20175;-45
2022/03/27 10:03:36;;;;;;;43.78;32.35;;;14.70;99.90;;;;;;5034447;28;20167;-46
2022/03/27 10:06:03;;;;;;;38.40;30.70;;;14.60;99.90;;;;;;5032710;28;20171;-46
2022/03/27 10:08:28;;;;;;;34.70;29.38;;;14.80;99.90;;;;;;5034052;28;20159;-46
2022/03/27 10:10:58;;;;;;;34.42;28.05;;;14.80;99.90;;;;;;5034044;28;20502;-46
2022/03/27 10:13:29;;;;;;;31.52;25.98;;;14.80;99.90;;;;;;5034201;28;20199;-46
2022/03/27 10:15:57;;;;;;;32.10;25.27;;;15.00;99.90;;;;;;5034169;28;20183;-46
2022/03/27 10:18:23;;;;;;;28.30;23.17;;;15.10;99.90;;;;;;5034195;28;20167;-46
2022/03/27 10:20:57;;;;;;;28.08;22.60;;;15.00;99.90;;;;;;5033521;28;20596;-46
2022/03/27 10:23:24;;;;;;;27.27;22.13;;;15.20;99.90;;;;;;5033892;28;20250;-46
2022/03/27 10:25:53;;;;;;;29.20;21.90;;;15.20;99.90;;;;;;5034110;28;20175;-46
2022/03/27 10:28:20;;;;;;;29.58;22.48;;;15.20;99.90;;;;;;5034102;28;20301;-46
2022/03/27 10:30:49;;;;;;;27.73;22.15;;;15.40;99.90;;;;;;5033715;28;20178;-45
2022/03/27 10:33:15;;;;;;;28.65;22.48;;;15.40;99.90;;;;;;5033703;28;20735;-45
2022/03/27 10:35:52;;;;;;;26.40;20.52;;;15.60;99.90;;;;;;5033310;28;20233;-46
2022/03/27 10:38:23;;;;;;;28.15;21.52;;;15.70;99.90;;;;;;5049267;28;20167;-45
2022/03/27 10:41:01;;;;;;;27.88;21.70;;;15.60;99.90;;;;;;5033999;28;20262;-45
2022/03/27 10:43:42;;;;;;;29.70;21.55;;;15.70;99.90;;;;;;5033559;28;20171;-45
2022/03/27 10:46:16;;;;;;;30.02;19.75;;;15.80;99.90;;;;;;5033239;28;20652;-46
2022/03/27 10:48:42;;;;;;;29.00;21.45;;;15.80;99.90;;;;;;5033320;28;20159;-45
2022/03/27 10:51:10;;;;;;;26.90;21.05;;;16.00;99.90;;;;;;5033372;28;20266;-45
2022/03/27 10:53:35;;;;;;;26.85;20.85;;;16.20;99.90;;;;;;5033128;28;20203;-45
2022/03/27 10:56:03;;;;;;;25.40;21.30;;;16.00;99.90;;;;;;5032950;28;20175;-46
2022/03/27 10:58:38;;;;;;;27.35;20.83;;;16.10;99.90;;;;;;5033025;28;20519;-46
2022/03/27 11:01:21;;;;;;;31.35;22.27;;;16.20;99.90;;;;;;5033109;28;20530;-45
2022/03/27 11:03:50;;;;;;;30.65;20.85;;;16.20;99.90;;;;;;5032975;28;20164;-45
2022/03/27 11:06:20;;;;;;;26.98;20.48;;;16.40;99.90;;;;;;5033047;28;20163;-45
2022/03/27 11:08:46;;;;;;;30.15;19.67;;;16.40;99.90;;;;;;5033062;28;20178;-45
2022/03/27 11:11:32;;;;;;;29.65;20.77;;;16.30;99.90;;;;;;5032900;28;20167;-45
2022/03/27 11:13:57;;;;;;;24.83;18.23;;;16.50;99.90;;;;;;5032607;28;20345;-45
2022/03/27 11:16:23;;;;;;;27.67;19.70;;;16.50;99.90;;;;;;5032889;28;20199;-45
2022/03/27 11:18:49;;;;;;;27.33;19.65;;;16.70;99.90;;;;;;5033109;28;20599;-45
2022/03/27 11:21:27;;;;;;;27.55;19.52;;;16.60;99.90;;;;;;5032647;28;20650;-46
2022/03/27 11:23:55;;;;;;;25.63;19.23;;;16.70;99.90;;;;;;5032698;28;20167;-45
2022/03/27 11:26:20;;;;;;;22.52;18.00;;;16.90;99.90;;;;;;5033244;28;20661;-46
2022/03/27 11:28:53;;;;;;;27.10;18.63;;;17.00;99.90;;;;;;5032716;28;20242;-46
2022/03/27 11:31:29;;;;;;;24.55;19.85;;;17.00;99.90;;;;;;5032761;28;20233;-46
2022/03/27 11:34:04;;;;;;;23.75;18.48;;;17.20;99.90;;;;;;5032319;28;20581;-46
2022/03/27 11:36:31;;;;;;;22.35;18.05;;;17.30;99.90;;;;;;5032511;28;20163;-46
2022/03/27 11:38:58;;;;;;;24.50;18.38;;;17.10;99.90;;;;;;5032362;28;20645;-46
2022/03/27 11:41:43;;;;;;;27.50;20.58;;;17.20;99.90;;;;;;5032380;28;20229;-45
2022/03/27 11:44:18;;;;;;;22.33;17.77;;;17.20;99.90;;;;;;5032666;28;20182;-45
2022/03/27 11:46:48;;;;;;;22.80;18.55;;;17.40;99.90;;;;;;5032265;28;20226;-45
2022/03/27 11:49:14;;;;;;;25.98;18.23;;;17.40;99.90;;;;;;5032487;28;20168;-45
2022/03/27 11:51:40;;;;;;;21.95;17.60;;;17.40;99.90;;;;;;5032240;28;20170;-46
2022/03/27 11:54:19;;;;;;;23.95;16.75;;;17.50;99.90;;;;;;5032185;28;20202;-46
2022/03/27 11:56:58;;;;;;;20.00;16.55;;;17.30;99.90;;;;;;5031914;28;20163;-45
2022/03/27 11:59:28;;;;;;;22.60;16.73;;;17.50;99.90;;;;;;5032179;28;20167;-46
2022/03/27 12:02:02;;;;;;;19.75;15.73;;;17.50;99.90;;;;;;5032327;28;20198;-46
2022/03/27 12:04:28;;;;;;;20.65;16.80;;;17.60;99.90;;;;;;5032425;28;20171;-45
2022/03/27 12:06:58;;;;;;;24.67;17.48;;;17.80;99.90;;;;;;5032048;28;20163;-45
2022/03/27 12:09:28;;;;;;;25.08;18.13;;;17.70;99.90;;;;;;5031877;28;20186;-46
2022/03/27 12:12:10;;;;;;;21.83;16.20;;;17.70;99.90;;;;;;5032013;28;20254;-45
2022/03/27 12:14:56;;;;;;;22.42;17.13;;;17.70;99.90;;;;;;5032077;28;20217;-45
2022/03/27 12:17:31;;;;;;;19.27;16.40;;;17.80;99.90;;;;;;5033103;28;20203;-46
2022/03/27 12:20:00;;;;;;;20.50;15.35;;;17.70;99.90;;;;;;5032249;28;20171;-46
2022/03/27 12:22:37;;;;;;;19.42;16.48;;;17.70;99.90;;;;;;5031839;28;20246;-46
2022/03/27 12:25:07;;;;;;;20.80;16.45;;;17.70;99.90;;;;;;5047077;28;20513;-46
2022/03/27 12:30:18;;;;;;;20.88;16.70;;;17.90;99.90;;;;;;5032254;28;20182;-46
2022/03/27 12:32:45;;;;;;;21.67;17.50;;;17.90;99.90;;;;;;5031725;28;20168;-45
2022/03/27 12:35:19;;;;;;;23.23;17.35;;;18.00;99.90;;;;;;5031944;28;20238;-45
2022/03/27 12:37:45;;;;;;;23.13;16.65;;;17.90;99.90;;;;;;5031662;28;20572;-45
2022/03/27 12:40:11;;;;;;;20.63;16.17;;;17.80;99.90;;;;;;5046833;28;20262;-46
2022/03/27 12:42:39;;;;;;;20.60;16.92;;;18.00;99.90;;;;;;5031753;28;20171;-45
2022/03/27 12:45:17;;;;;;;20.20;16.48;;;17.90;99.90;;;;;;5033240;28;20194;-45
2022/03/27 12:47:52;;;;;;;18.73;15.57;;;18.00;99.90;;;;;;5035247;28;20277;-45